.
WxDataArchive / Data Records for 2007-07-28
2007-07-27 July 2007 2007-07-29

Data Records for Saturday, 28 July 2007

Time	Temp	Chill	HIndex	Humid	Dewpt	 Wind 	HiWind	WindDir	Rain 	Barom 
-----	----	-----	------	-----	-----	------	------	-------	-----	----- 
00:00	71.6	71.6	71.6	89	68.2	0	0	---	0.00	29.759 
00:05	71.5	71.5	71.5	89	68.1	0	0	---	0.00	29.756 
00:10	71.5	71.5	71.5	89	68.1	0	0	---	0.00	29.756 
00:15	71.3	71.3	71.3	90	68.2	0	0	---	0.00	29.755 
00:20	71.1	71.1	71.1	90	68.0	0	0	---	0.00	29.750 
00:25	70.9	70.9	70.9	90	67.8	0	0	---	0.00	29.749 
00:30	70.8	70.8	70.8	91	68.0	0	0	---	0.00	29.748 
00:35	70.6	70.6	70.6	91	67.8	0	0	---	0.00	29.747 
00:40	70.4	70.4	70.4	91	67.6	0	0	---	0.00	29.746 
00:45	70.3	70.3	70.3	92	67.9	0	0	---	0.00	29.747 
00:50	70.1	70.1	70.1	92	67.7	0	0	---	0.00	29.750 
00:55	70.1	70.1	70.1	92	67.7	0	0	---	0.00	29.751 
01:00	70.1	70.1	70.1	93	68.0	0	0	---	0.00	29.749 
01:05	70.1	70.1	70.1	93	68.0	0	0	---	0.00	29.751 
01:10	69.9	69.9	69.9	93	67.8	0	0	---	0.00	29.757 
01:15	69.9	69.9	69.9	93	67.8	0	0	---	0.00	29.758 
01:20	69.8	69.8	69.8	93	67.7	0	0	---	0.00	29.757 
01:25	69.8	69.8	69.8	93	67.7	0	0	---	0.00	29.760 
01:30	69.8	69.8	69.8	94	68.0	0	1	292	0.00	29.759 
01:35	69.8	69.8	69.8	94	68.0	0	0	---	0.00	29.759 
01:40	69.6	69.6	69.6	94	67.8	0	0	---	0.00	29.758 
01:45	69.6	69.6	69.6	94	67.8	0	0	---	0.00	29.754 
01:50	69.6	69.6	69.6	94	67.8	0	0	---	0.00	29.755 
01:55	69.4	69.4	69.4	94	67.6	0	0	---	0.00	29.755 
02:00	69.4	69.4	69.4	94	67.6	0	0	---	0.00	29.754 
02:05	69.3	69.3	69.3	95	67.8	0	0	---	0.00	29.756 
02:10	69.1	69.1	69.1	95	67.6	0	0	---	0.00	29.752 
02:15	69.1	69.1	69.1	95	67.6	0	0	---	0.00	29.748 
02:20	68.9	68.9	68.9	95	67.4	0	0	---	0.00	29.747 
02:25	68.8	68.8	68.8	95	67.3	0	0	---	0.00	29.746 
02:30	68.8	68.8	68.8	95	67.3	0	0	---	0.00	29.745 
02:35	68.6	68.6	68.6	95	67.1	0	0	---	0.00	29.745 
02:40	68.6	68.6	68.6	95	67.1	0	0	---	0.00	29.744 
02:45	68.4	68.4	68.4	95	66.9	0	0	---	0.00	29.745 
02:50	68.4	68.4	68.4	96	67.2	0	0	---	0.00	29.745 
02:55	68.4	68.4	68.4	96	67.2	0	0	---	0.00	29.743 
03:00	68.3	68.3	68.3	96	67.1	0	0	---	0.00	29.744 
03:05	68.3	68.3	68.3	96	67.1	0	0	---	0.00	29.740 
03:10	68.3	68.3	68.3	96	67.1	0	0	---	0.00	29.739 
03:15	68.1	68.1	68.1	96	66.9	0	0	---	0.00	29.739 
03:20	68.1	68.1	68.1	96	66.9	0	0	---	0.00	29.740 
03:25	67.9	67.9	67.9	96	66.7	0	0	---	0.00	29.743 
03:30	67.9	67.9	67.9	96	66.7	0	0	---	0.00	29.736 
03:35	67.9	67.9	67.9	96	66.7	0	0	---	0.00	29.742 
03:40	67.8	67.8	67.8	96	66.6	0	0	---	0.00	29.739 
03:45	67.8	67.8	67.8	96	66.6	0	0	---	0.00	29.739 
03:50	67.8	67.8	67.8	96	66.6	0	0	---	0.00	29.743 
03:55	67.8	67.8	67.8	96	66.6	0	0	---	0.00	29.746 
04:00	67.8	67.8	67.8	96	66.6	0	0	---	0.00	29.747 
04:05	67.6	67.6	67.6	96	66.4	0	0	---	0.00	29.750 
04:10	67.6	67.6	67.6	96	66.4	0	0	---	0.00	29.748 
04:15	67.6	67.6	67.6	96	66.4	0	0	---	0.00	29.752 
04:20	67.4	67.4	67.4	96	66.2	0	0	---	0.00	29.753 
04:25	67.3	67.3	67.3	96	66.1	0	0	---	0.00	29.756 
04:30	67.3	67.3	67.3	97	66.4	0	0	---	0.00	29.761 
04:35	67.3	67.3	67.3	97	66.4	0	0	---	0.00	29.761 
04:40	67.1	67.1	67.1	97	66.2	0	0	---	0.00	29.764 
04:45	67.1	67.1	67.1	97	66.2	0	0	---	0.00	29.764 
04:50	67.1	67.1	67.1	97	66.2	0	0	---	0.00	29.765 
04:55	66.9	66.9	66.9	97	66.0	0	0	---	0.00	29.764 
05:00	66.8	66.8	66.8	97	65.9	0	0	---	0.00	29.764 
05:05	66.8	66.8	66.8	97	65.9	0	0	---	0.00	29.766 
05:10	66.6	66.6	66.6	97	65.7	0	0	---	0.00	29.766 
05:15	66.6	66.6	66.6	97	65.7	0	0	---	0.00	29.767 
05:20	66.6	66.6	66.6	97	65.7	0	0	---	0.00	29.768 
05:25	66.8	66.8	66.8	97	65.9	0	0	---	0.00	29.769 
05:30	66.8	66.8	66.8	97	65.9	0	0	---	0.00	29.768 
05:35	66.8	66.8	66.8	97	65.9	0	0	---	0.00	29.772 
05:40	66.9	66.9	66.9	97	66.0	0	0	---	0.00	29.777 
05:45	67.4	67.4	67.4	97	66.5	0	2	292	0.00	29.781 
05:50	67.8	67.8	67.8	98	67.2	0	1	315	0.00	29.783 
05:55	68.1	68.1	68.1	98	67.5	0	2	315	0.00	29.786 
06:00	68.4	68.4	68.4	98	67.8	1	3	68	0.00	29.790 
06:05	68.4	68.4	68.4	98	67.8	0	3	68	0.00	29.791 
06:10	68.6	68.6	68.6	98	68.0	1	3	68	0.00	29.789 
06:15	68.8	68.8	68.8	98	68.2	0	2	68	0.00	29.789 
06:20	68.8	68.8	68.8	98	68.2	1	3	68	0.00	29.794 
06:25	68.8	68.8	68.8	98	68.2	1	3	68	0.00	29.795 
06:30	68.8	68.8	68.8	98	68.2	0	2	68	0.00	29.796 
06:35	68.9	68.9	68.9	98	68.3	1	3	90	0.00	29.797 
06:40	68.9	68.9	68.9	98	68.3	1	4	90	0.00	29.797 
06:45	69.1	69.1	69.1	98	68.5	2	4	112	0.00	29.797 
06:50	69.1	69.1	69.1	98	68.5	1	2	112	0.00	29.799 
06:55	69.3	69.3	69.3	98	68.7	1	3	112	0.00	29.800 
07:00	69.4	69.4	69.4	98	68.8	1	4	112	0.00	29.800 
07:05	69.4	69.4	69.4	98	68.8	1	4	112	0.00	29.805 
07:10	69.6	69.6	69.6	98	69.0	2	5	90	0.00	29.806 
07:15	69.6	69.6	69.6	98	69.0	1	3	90	0.00	29.809 
07:20	69.8	69.8	69.8	98	69.2	1	4	112	0.00	29.810 
07:25	69.9	69.9	69.9	98	69.3	1	4	90	0.00	29.811 
07:30	69.9	69.9	69.9	98	69.3	1	4	90	0.00	29.812 
07:35	69.9	69.9	69.9	98	69.3	1	3	90	0.00	29.813 
07:40	70.1	70.1	70.1	98	69.5	1	3	90	0.00	29.813 
07:45	70.3	70.3	70.3	98	69.7	1	3	90	0.00	29.814 
07:50	70.4	70.4	70.4	98	69.8	1	3	90	0.00	29.816 
07:55	70.4	70.4	70.4	98	69.8	1	3	90	0.00	29.821 
08:00	70.6	70.6	70.6	98	70.0	2	6	90	0.00	29.823 
08:05	70.8	70.8	70.8	97	69.9	2	4	90	0.00	29.829 
08:10	70.8	70.8	70.8	97	69.9	1	4	112	0.00	29.830 
08:15	70.8	70.8	70.8	97	69.9	2	5	90	0.00	29.831 
08:20	70.9	70.9	70.9	96	69.7	1	4	112	0.00	29.832 
08:25	70.9	70.9	70.9	96	69.7	1	4	90	0.00	29.833 
08:30	71.1	71.1	71.1	95	69.6	1	3	90	0.00	29.834 
08:35	71.1	71.1	71.1	95	69.6	1	4	68	0.00	29.834 
08:40	71.3	71.3	71.3	94	69.5	1	3	68	0.00	29.831 
08:45	71.3	71.3	71.3	94	69.5	1	5	90	0.00	29.832 
08:50	71.5	71.5	71.5	94	69.7	1	4	90	0.00	29.832 
08:55	71.5	71.5	71.5	94	69.7	1	4	90	0.00	29.834 
09:00	71.6	71.6	71.6	93	69.5	2	3	112	0.00	29.834 
09:05	71.6	71.6	71.6	93	69.5	1	4	112	0.00	29.838 
09:10	71.8	71.8	71.8	93	69.7	0	3	68	0.00	29.840 
09:15	71.8	71.8	71.8	92	69.3	2	5	112	0.00	29.837 
09:20	71.8	71.8	71.8	92	69.3	2	5	112	0.00	29.838 
09:25	72.1	72.1	72.1	91	69.3	1	3	112	0.00	29.839 
09:30	72.5	72.5	72.5	91	69.7	1	3	90	0.00	29.837 
09:35	72.7	72.7	72.7	90	69.6	1	4	90	0.00	29.842 
09:40	73.0	73.0	73.0	90	69.9	1	3	90	0.00	29.844 
09:45	73.2	73.2	73.2	89	69.8	1	3	90	0.00	29.845 
09:50	73.5	73.5	73.5	88	69.7	2	5	90	0.00	29.845 
09:55	73.9	73.9	73.9	87	69.8	2	9	90	0.00	29.842 
10:00	74.7	74.7	74.7	84	69.5	3	9	90	0.00	29.843 
10:05	75.4	75.4	75.9	82	69.5	4	8	90	0.00	29.842 
10:10	75.6	75.6	76.2	82	69.7	3	6	90	0.00	29.842 
10:15	76.0	76.0	76.8	82	70.1	1	5	112	0.00	29.844 
10:20	76.1	76.1	77.1	80	69.5	3	6	112	0.00	29.844 
10:25	76.3	76.3	77.6	77	68.5	3	5	90	0.00	29.843 
10:30	76.7	76.7	78.2	78	69.3	2	7	90	0.00	29.841 
10:35	76.8	76.8	78.4	76	68.6	4	7	112	0.00	29.842 
10:40	77.0	77.0	78.7	75	68.5	3	6	90	0.00	29.843 
10:45	77.2	77.2	79.0	74	68.3	3	7	112	0.00	29.849 
10:50	77.4	77.4	79.3	72	67.6	3	5	112	0.00	29.847 
10:55	77.9	77.9	79.9	71	67.7	3	8	90	0.00	29.847 
11:00	78.8	78.8	80.8	65	66.0	3	8	90	0.00	29.844 
11:05	79.4	79.4	81.6	65	66.6	3	6	112	0.00	29.845 
11:10	79.6	79.6	81.7	64	66.3	4	11	90	0.00	29.848 
11:15	79.8	79.8	82.0	64	66.5	3	7	112	0.00	29.851 
11:20	79.6	79.6	81.4	61	64.9	4	10	90	0.00	29.850 
11:25	79.8	79.8	81.7	61	65.1	3	10	90	0.00	29.847 
11:30	79.8	79.8	81.8	62	65.6	4	8	90	0.00	29.844 
11:35	79.9	79.9	82.0	63	66.2	3	7	90	0.00	29.845 
11:40	80.3	80.3	82.2	60	65.1	4	7	112	0.00	29.846 
11:45	80.5	80.5	82.7	62	66.3	2	10	90	0.00	29.851 
11:50	81.1	81.1	82.9	58	64.9	3	7	90	0.00	29.855 
11:55	81.1	81.1	82.9	58	64.9	4	9	112	0.00	29.856 
12:00	80.7	80.7	82.8	61	66.0	3	5	90	0.00	29.855 
12:05	80.3	80.3	82.2	60	65.1	4	10	90	0.00	29.857 
12:10	80.3	80.3	82.4	62	66.1	3	6	90	0.00	29.855 
12:15	80.9	80.9	83.4	63	67.1	3	6	90	0.00	29.855 
12:20	80.9	80.9	82.9	60	65.7	4	10	90	0.00	29.856 
12:25	81.2	81.2	83.0	58	65.0	4	10	90	0.00	29.858 
12:30	81.6	81.6	83.7	59	65.9	3	7	112	0.00	29.857 
12:35	82.4	82.4	84.6	58	66.1	2	4	112	0.00	29.854 
12:40	82.4	82.4	84.6	58	66.1	3	5	112	0.00	29.852 
12:45	81.2	81.2	83.2	59	65.5	4	9	112	0.00	29.849 
12:50	81.2	81.2	83.0	58	65.0	4	10	90	0.00	29.844 
12:55	81.2	81.2	83.2	59	65.5	3	7	90	0.00	29.842 
13:00	81.2	81.2	83.3	60	66.0	4	11	90	0.00	29.843 
13:05	81.6	81.6	83.9	60	66.3	2	5	90	0.00	29.846 
13:10	82.4	82.4	84.8	59	66.6	2	5	112	0.00	29.848 
13:15	82.6	82.6	84.7	57	65.8	2	6	112	0.00	29.848 
13:20	82.4	82.4	84.6	58	66.1	2	10	90	0.00	29.846 
13:25	82.0	82.0	83.9	57	65.2	2	5	112	0.00	29.845 
13:30	82.0	82.0	84.4	60	66.7	2	5	90	0.00	29.845 
13:35	82.2	82.2	84.3	58	65.9	2	5	112	0.00	29.846 
13:40	81.8	81.8	83.8	58	65.6	3	7	112	0.00	29.851 
13:45	81.2	81.2	83.3	60	66.0	2	5	90	0.00	29.848 
13:50	80.9	80.9	83.1	61	66.2	2	5	90	0.00	29.847 
13:55	80.3	80.3	82.2	60	65.1	3	7	112	0.00	29.849 
14:00	80.1	80.1	82.2	62	65.9	1	4	112	0.00	29.853 
14:05	80.1	80.1	82.3	63	66.3	0	2	112	0.00	29.858 
14:10	80.3	80.3	82.5	63	66.5	1	4	112	0.00	29.860 
14:15	80.5	80.5	82.5	61	65.8	1	3	90	0.00	29.858 
14:20	80.5	80.5	82.7	62	66.3	2	5	90	0.00	29.857 
14:25	80.5	80.5	83.1	65	67.6	2	6	90	0.00	29.853 
14:30	80.1	80.1	81.7	58	64.0	3	10	90	0.00	29.852 
14:35	79.8	79.8	81.6	60	64.7	3	9	112	0.00	29.850 
14:40	79.9	79.9	81.7	60	64.7	3	6	90	0.00	29.851 
14:45	79.9	79.9	81.5	58	63.8	3	9	90	0.00	29.850 
14:50	79.9	79.9	81.7	60	64.7	2	4	90	0.00	29.850 
14:55	79.6	79.6	81.5	62	65.4	2	6	90	0.00	29.846 
15:00	80.3	80.3	82.7	64	67.0	2	5	90	0.00	29.849 
15:05	80.9	80.9	82.9	60	65.7	2	5	112	0.00	29.848 
15:10	81.2	81.2	83.6	62	66.9	2	5	90	0.00	29.845 
15:15	81.2	81.2	83.3	60	66.0	3	6	90	0.00	29.844 
15:20	81.1	81.1	82.8	57	64.4	3	7	90	0.00	29.844 
15:25	81.1	81.1	83.2	60	65.9	2	6	90	0.00	29.843 
15:30	80.9	80.9	82.9	60	65.7	2	7	90	0.00	29.843 
15:35	80.7	80.7	82.4	58	64.5	2	5	112	0.00	29.844 
15:40	80.9	80.9	82.8	59	65.2	2	10	90	0.00	29.843 
15:45	81.1	81.1	83.0	59	65.4	3	5	90	0.00	29.840 
15:50	81.4	81.4	83.9	62	67.1	3	5	90	0.00	29.840 
15:55	82.4	82.4	85.2	61	67.6	2	5	90	0.00	29.838 
16:00	83.0	83.0	85.3	57	66.2	3	6	90	0.00	29.841 
16:05	82.8	82.8	85.0	57	66.0	3	7	90	0.00	29.840 
16:10	82.6	82.6	84.9	58	66.3	2	4	90	0.00	29.841 
16:15	82.8	82.8	85.2	58	66.5	3	6	112	0.00	29.839 
16:20	83.0	83.0	85.5	58	66.7	1	4	112	0.00	29.840 
16:25	83.0	83.0	84.9	55	65.1	3	9	90	0.00	29.841 
16:30	82.4	82.4	84.1	55	64.6	4	9	112	0.00	29.842 
16:35	81.8	81.8	83.6	57	65.0	3	6	90	0.00	29.843 
16:40	81.2	81.2	83.2	59	65.5	2	6	90	0.00	29.842 
16:45	80.7	80.7	82.5	59	65.0	3	9	90	0.00	29.843 
16:50	80.3	80.3	82.3	61	65.6	2	5	90	0.00	29.843 
16:55	80.3	80.3	82.3	61	65.6	2	5	112	0.00	29.843 
17:00	80.3	80.3	82.5	63	66.5	1	4	112	0.00	29.845 
17:05	80.3	80.3	82.4	62	66.1	1	4	112	0.00	29.844 
17:10	80.1	80.1	82.2	62	65.9	3	6	90	0.00	29.843 
17:15	80.1	80.1	82.0	61	65.4	2	5	90	0.00	29.843 
17:20	79.9	79.9	81.9	62	65.7	3	5	90	0.00	29.843 
17:25	79.9	79.9	82.1	64	66.6	2	4	90	0.00	29.842 
17:30	80.1	80.1	82.2	62	65.9	1	3	90	0.00	29.843 
17:35	80.1	80.1	82.2	62	65.9	1	3	90	0.00	29.844 
17:40	80.1	80.1	82.0	61	65.4	2	5	112	0.00	29.843 
17:45	80.1	80.1	81.9	60	64.9	1	3	112	0.00	29.844 
17:50	79.9	79.9	82.0	63	66.2	1	3	112	0.00	29.844 
17:55	79.8	79.8	81.8	62	65.6	1	3	90	0.00	29.842 
18:00	79.4	79.4	81.3	62	65.2	1	4	112	0.00	29.842 
18:05	79.4	79.4	81.4	63	65.7	1	3	112	0.00	29.843 
18:10	79.2	79.2	81.3	65	66.4	0	2	112	0.00	29.843 
18:15	79.2	79.2	81.3	65	66.4	0	1	112	0.00	29.842 
18:20	79.2	79.2	81.2	64	65.9	0	1	112	0.00	29.843 
18:25	79.0	79.0	81.0	65	66.2	0	2	112	0.00	29.842 
18:30	78.8	78.8	80.7	64	65.6	0	1	112	0.00	29.842 
18:35	78.6	78.6	80.6	65	65.8	0	2	112	0.00	29.842 
18:40	78.6	78.6	80.6	65	65.8	1	3	112	0.00	29.842 
18:45	78.6	78.6	80.6	65	65.8	1	3	112	0.00	29.842 
18:50	78.6	78.6	80.6	66	66.3	1	3	112	0.00	29.845 
18:55	78.6	78.6	80.7	67	66.7	0	1	112	0.00	29.846 
19:00	78.5	78.5	80.4	65	65.7	1	3	112	0.00	29.845 
19:05	78.5	78.5	80.4	65	65.7	1	2	112	0.00	29.843 
19:10	78.5	78.5	80.5	66	66.2	1	3	112	0.00	29.843 
19:15	78.3	78.3	80.3	67	66.4	1	3	112	0.00	29.844 
19:20	78.1	78.1	80.1	68	66.7	0	2	112	0.00	29.844 
19:25	77.9	77.9	79.8	68	66.5	1	2	112	0.00	29.844 
19:30	77.7	77.7	79.6	69	66.7	0	2	112	0.00	29.845 
19:35	77.4	77.4	79.2	69	66.4	0	1	112	0.00	29.844 
19:40	77.2	77.2	79.0	71	67.0	0	1	112	0.00	29.845 
19:45	76.8	76.8	78.5	71	66.7	0	0	---	0.00	29.845 
19:50	76.5	76.5	78.1	72	66.8	0	0	---	0.00	29.845 
19:55	76.0	76.0	77.5	73	66.7	0	0	---	0.00	29.847 
20:00	75.8	75.8	77.2	74	66.9	0	0	---	0.00	29.847 
20:05	75.3	75.3	76.5	75	66.8	0	0	---	0.00	29.848 
20:10	74.9	74.9	74.9	75	66.4	0	1	112	0.00	29.850 
20:15	74.6	74.6	74.6	75	66.1	0	1	112	0.00	29.850 
20:20	74.4	74.4	74.4	75	65.9	0	0	---	0.00	29.855 
20:25	74.0	74.0	74.0	75	65.6	0	0	---	0.00	29.859 
20:30	73.9	73.9	73.9	75	65.5	0	0	---	0.00	29.860 
20:35	73.5	73.5	73.5	76	65.5	0	0	---	0.00	29.860 
20:40	73.2	73.2	73.2	77	65.5	0	0	---	0.00	29.863 
20:45	73.0	73.0	73.0	77	65.3	0	0	---	0.00	29.863 
20:50	72.7	72.7	72.7	78	65.4	0	0	---	0.00	29.865 
20:55	72.5	72.5	72.5	78	65.2	0	0	---	0.00	29.868 
21:00	72.1	72.1	72.1	79	65.2	0	0	---	0.00	29.874 
21:05	72.0	72.0	72.0	79	65.1	0	0	---	0.00	29.874 
21:10	71.8	71.8	71.8	79	64.9	0	0	---	0.00	29.875 
21:15	71.5	71.5	71.5	79	64.6	0	0	---	0.00	29.875 
21:20	71.3	71.3	71.3	79	64.4	0	0	---	0.00	29.877 
21:25	71.3	71.3	71.3	79	64.4	0	0	---	0.00	29.877 
21:30	71.1	71.1	71.1	79	64.2	0	0	---	0.00	29.880 
21:35	70.9	70.9	70.9	79	64.1	0	0	---	0.00	29.884 
21:40	70.9	70.9	70.9	79	64.1	0	0	---	0.00	29.888 
21:45	70.8	70.8	70.8	80	64.3	0	0	---	0.00	29.888 
21:50	70.8	70.8	70.8	80	64.3	0	0	---	0.00	29.884 
21:55	70.8	70.8	70.8	80	64.3	0	1	112	0.00	29.887 
22:00	70.8	70.8	70.8	79	64.0	0	0	---	0.00	29.887 
22:05	70.8	70.8	70.8	79	64.0	0	0	---	0.00	29.884 
22:10	70.6	70.6	70.6	79	63.8	0	0	---	0.00	29.887 
22:15	70.6	70.6	70.6	79	63.8	0	0	---	0.00	29.890 
22:20	70.4	70.4	70.4	80	63.9	0	0	---	0.00	29.891 
22:25	70.3	70.3	70.3	81	64.2	0	0	---	0.00	29.889 
22:30	70.1	70.1	70.1	81	64.0	0	0	---	0.00	29.890 
22:35	69.8	69.8	69.8	81	63.7	0	0	---	0.00	29.888 
22:40	69.6	69.6	69.6	82	63.9	0	0	---	0.00	29.886 
22:45	69.3	69.3	69.3	83	63.9	0	0	---	0.00	29.887 
22:50	69.1	69.1	69.1	84	64.1	0	0	---	0.00	29.890 
22:55	68.9	68.9	68.9	84	63.9	0	0	---	0.00	29.891 
23:00	68.6	68.6	68.6	85	63.9	0	0	---	0.00	29.891 
23:05	68.4	68.4	68.4	85	63.7	0	0	---	0.00	29.890 
23:10	68.3	68.3	68.3	86	63.9	0	0	---	0.00	29.892 
23:15	68.1	68.1	68.1	86	63.7	0	0	---	0.00	29.894 
23:20	67.9	67.9	67.9	87	63.9	0	0	---	0.00	29.893 
23:25	67.8	67.8	67.8	87	63.8	0	0	---	0.00	29.892 
23:30	67.6	67.6	67.6	87	63.6	0	0	---	0.00	29.892 
23:35	67.4	67.4	67.4	88	63.7	0	0	---	0.00	29.892 
23:40	67.1	67.1	67.1	88	63.4	0	0	---	0.00	29.892 
23:45	66.9	66.9	66.9	89	63.5	0	0	---	0.00	29.891 
23:50	66.8	66.8	66.8	89	63.4	0	0	---	0.00	29.891 
23:55	66.8	66.8	66.8	90	63.8	0	0	---	0.00	29.892 

CoCoRaHS
IN-AL-39
A2 Web Hosting
Creative Commons License
GoDaddy
Look for:

loaded 2017-10-19 12:13:54 • last modified 2010-11-18 10:43:29
Privacy PolicyDisclaimer
• wx.awcolley.com is powered by PmWiki v.2002016 •
• all content (unless otherwise noted) © 2017 A W Colley